createdAt,value
2018-11-27T00:00:58.370Z,3.10
2018-11-27T00:05:57.014Z,3.10
2018-11-27T00:10:55.713Z,3.20
2018-11-27T00:15:54.334Z,3.20
2018-11-27T00:20:53.018Z,3.20
2018-11-27T00:25:51.630Z,3.10
2018-11-27T00:30:50.322Z,3.10
2018-11-27T00:35:48.961Z,3.00
2018-11-27T00:40:47.622Z,2.80
2018-11-27T00:45:46.219Z,2.80
2018-11-27T00:50:44.946Z,2.70
2018-11-27T00:55:43.598Z,2.70
2018-11-27T01:00:42.334Z,2.70
2018-11-27T01:05:40.961Z,2.60
2018-11-27T01:10:39.618Z,2.60
2018-11-27T01:15:38.254Z,2.60
2018-11-27T01:20:36.873Z,2.60
2018-11-27T01:25:35.562Z,2.50
2018-11-27T01:30:34.257Z,2.40
2018-11-27T01:35:32.873Z,2.40
2018-11-27T01:40:31.494Z,2.40
2018-11-27T01:45:30.127Z,2.30
2018-11-27T01:50:28.841Z,2.20
2018-11-27T01:55:27.475Z,2.20
2018-11-27T02:00:27.906Z,2.10
2018-11-27T02:05:26.810Z,2.10
2018-11-27T02:10:25.495Z,2.20
2018-11-27T02:15:26.073Z,2.10
2018-11-27T02:20:24.709Z,2.00
2018-11-27T02:25:26.132Z,2.00
2018-11-27T02:30:25.748Z,2.00
2018-11-27T02:35:25.274Z,2.00
2018-11-27T02:40:23.977Z,2.00
2018-11-27T02:45:23.612Z,1.90
2018-11-27T02:50:23.357Z,2.00
2018-11-27T02:55:22.925Z,2.10
2018-11-27T03:00:25.205Z,2.00
2018-11-27T03:05:34.176Z,2.00
2018-11-27T03:10:34.910Z,2.00
2018-11-27T03:15:33.567Z,1.90
2018-11-27T03:20:32.200Z,1.90
2018-11-27T03:25:30.844Z,1.90
2018-11-27T03:30:29.472Z,1.90
2018-11-27T03:35:28.133Z,1.80
2018-11-27T03:40:28.039Z,1.80
2018-11-27T03:45:26.710Z,1.80
2018-11-27T03:50:28.411Z,1.70
2018-11-27T03:55:27.041Z,1.70
2018-11-27T04:00:26.934Z,1.70
2018-11-27T04:05:26.182Z,1.70
2018-11-27T04:10:24.866Z,1.70
2018-11-27T04:15:23.488Z,1.70
2018-11-27T04:20:22.184Z,1.70
2018-11-27T04:25:20.888Z,1.80
2018-11-27T04:30:20.390Z,1.70
2018-11-27T04:35:20.255Z,1.80
2018-11-27T04:40:20.013Z,1.70
2018-11-27T04:45:20.038Z,1.70
2018-11-27T04:50:19.010Z,1.60
2018-11-27T04:55:20.530Z,1.60
2018-11-27T05:00:23.298Z,1.70
2018-11-27T05:05:22.255Z,1.70
2018-11-27T05:10:22.089Z,1.60
2018-11-27T05:15:23.042Z,1.60
2018-11-27T05:20:21.881Z,1.50
2018-11-27T05:25:20.878Z,1.50
2018-11-27T05:30:22.383Z,1.50
2018-11-27T05:35:22.765Z,1.60
2018-11-27T05:40:22.693Z,1.40
2018-11-27T05:45:22.349Z,1.30
2018-11-27T05:50:21.021Z,1.40
2018-11-27T05:55:19.660Z,1.40
2018-11-27T06:00:19.470Z,1.40
2018-11-27T06:05:19.206Z,1.30
2018-11-27T06:10:18.926Z,1.40
2018-11-27T06:15:19.771Z,1.30
2018-11-27T06:20:20.337Z,1.30
2018-11-27T06:25:20.965Z,1.20
2018-11-27T06:30:20.705Z,1.30
2018-11-27T06:35:27.689Z,1.20
2018-11-27T06:40:27.722Z,1.20
2018-11-27T06:45:26.364Z,1.30
2018-11-27T06:50:25.141Z,1.40
2018-11-27T06:55:24.349Z,1.40
2018-11-27T07:00:25.184Z,1.50
2018-11-27T07:05:23.798Z,1.70
2018-11-27T07:10:28.753Z,1.70
2018-11-27T07:15:27.410Z,1.70
2018-11-27T07:20:26.122Z,1.70
2018-11-27T07:25:24.768Z,1.90
2018-11-27T07:30:24.371Z,2.00
2018-11-27T07:35:23.003Z,2.10
2018-11-27T07:40:23.630Z,2.10
2018-11-27T07:45:23.010Z,2.30
2018-11-27T07:50:21.725Z,2.40
2018-11-27T07:55:22.043Z,2.40
2018-11-27T08:00:22.385Z,2.50
2018-11-27T08:05:23.134Z,2.40
2018-11-27T08:10:22.765Z,2.20
2018-11-27T08:15:23.546Z,2.20
2018-11-27T08:20:24.466Z,2.40
2018-11-27T08:25:23.117Z,2.50
2018-11-27T08:30:22.280Z,2.70
2018-11-27T08:35:22.938Z,2.80
2018-11-27T08:40:23.558Z,2.90
2018-11-27T08:45:23.253Z,2.90
2018-11-27T08:50:23.781Z,2.90
2018-11-27T08:55:24.506Z,3.00
2018-11-27T09:00:24.331Z,3.10
2018-11-27T09:05:22.933Z,3.10
2018-11-27T09:10:22.748Z,3.30
2018-11-27T09:15:22.284Z,3.30
2018-11-27T09:20:21.027Z,3.20
2018-11-27T09:25:19.610Z,3.10
2018-11-27T09:30:20.890Z,3.10
2018-11-27T09:35:19.581Z,3.30
2018-11-27T09:40:19.161Z,3.30
2018-11-27T09:45:19.718Z,3.40
2018-11-27T09:50:18.350Z,3.50
2018-11-27T09:55:18.787Z,3.60
2018-11-27T10:00:26.261Z,3.70
2018-11-27T10:05:24.891Z,3.70
2018-11-27T10:10:24.371Z,3.70
2018-11-27T10:15:24.222Z,3.70
2018-11-27T10:20:24.249Z,3.60
2018-11-27T10:25:22.890Z,3.70
2018-11-27T10:30:23.667Z,3.70
2018-11-27T10:35:23.351Z,3.80
2018-11-27T10:40:22.017Z,3.90
2018-11-27T10:45:22.692Z,3.90
2018-11-27T10:50:21.384Z,4.00
2018-11-27T10:55:20.482Z,4.10
2018-11-27T11:00:25.429Z,4.20
2018-11-27T11:05:27.715Z,4.30
2018-11-27T11:10:25.121Z,4.30
2018-11-27T11:15:23.726Z,4.30
2018-11-27T11:20:22.908Z,4.30
2018-11-27T11:25:22.829Z,4.30
2018-11-27T11:30:22.081Z,4.40
2018-11-27T11:35:20.773Z,4.60
2018-11-27T11:40:20.385Z,4.70
2018-11-27T11:45:19.010Z,4.70
2018-11-27T11:50:23.866Z,4.70
2018-11-27T11:55:22.492Z,4.80
2018-11-27T12:00:31.462Z,4.80
2018-11-27T12:05:30.081Z,4.70
2018-11-27T12:10:28.764Z,4.70
2018-11-27T12:15:27.396Z,4.80
2018-11-27T12:20:26.142Z,4.90
2018-11-27T12:25:24.775Z,5.00
2018-11-27T12:30:24.687Z,5.10
2018-11-27T12:35:23.900Z,5.10
2018-11-27T12:40:25.784Z,5.10
2018-11-27T12:45:29.185Z,5.00
2018-11-27T12:50:37.530Z,5.00
2018-11-27T12:55:37.462Z,4.80
2018-11-27T13:00:36.118Z,4.90
2018-11-27T13:05:38.145Z,5.00
2018-11-27T13:10:36.753Z,5.00
2018-11-27T13:15:36.582Z,5.00
2018-11-27T13:20:35.243Z,5.10
2018-11-27T13:25:33.880Z,5.10
2018-11-27T13:30:41.277Z,5.00
2018-11-27T13:35:39.927Z,4.90
2018-11-27T13:40:38.593Z,5.00
2018-11-27T13:45:37.581Z,4.80
2018-11-27T13:50:36.303Z,4.70
2018-11-27T13:55:34.905Z,4.80
2018-11-27T14:00:33.525Z,4.90
2018-11-27T14:05:32.144Z,4.80
2018-11-27T14:10:30.864Z,4.70
2018-11-27T14:15:29.528Z,4.70
2018-11-27T14:20:28.130Z,4.70
2018-11-27T14:25:26.758Z,4.70
2018-11-27T14:30:25.882Z,4.60
2018-11-27T14:35:24.692Z,4.70
2018-11-27T14:40:25.372Z,4.60
2018-11-27T14:45:25.776Z,4.60
2018-11-27T14:50:24.406Z,4.60
2018-11-27T14:55:26.458Z,4.50
2018-11-27T15:00:25.897Z,4.40
2018-11-27T15:05:27.252Z,4.40
2018-11-27T15:10:26.194Z,4.40
2018-11-27T15:15:24.832Z,4.40
2018-11-27T15:20:23.841Z,4.50
2018-11-27T15:25:22.624Z,4.40
2018-11-27T15:30:23.482Z,4.50
2018-11-27T15:35:22.189Z,4.50
2018-11-27T15:40:24.208Z,4.60
2018-11-27T15:45:26.842Z,4.50
2018-11-27T15:50:25.570Z,4.50
2018-11-27T15:55:26.553Z,4.50
2018-11-27T16:00:25.255Z,4.50
2018-11-27T16:05:23.889Z,4.50
2018-11-27T16:10:23.102Z,4.50
2018-11-27T16:15:21.977Z,4.50
2018-11-27T16:20:21.702Z,4.50
2018-11-27T16:25:22.244Z,4.40
2018-11-27T16:30:24.066Z,4.40
2018-11-27T16:35:23.048Z,4.40
2018-11-27T16:40:24.101Z,4.30
2018-11-27T16:45:23.406Z,4.30
2018-11-27T16:50:22.109Z,4.40
2018-11-27T16:55:22.758Z,4.50
2018-11-27T17:00:25.401Z,4.50
2018-11-27T17:05:24.490Z,4.40
2018-11-27T17:10:23.121Z,4.40
2018-11-27T17:15:23.001Z,4.50
2018-11-27T17:20:25.331Z,4.40
2018-11-27T17:25:23.949Z,4.40
2018-11-27T17:30:26.608Z,4.40
2018-11-27T17:35:26.003Z,4.40
2018-11-27T17:40:24.654Z,4.40
2018-11-27T17:45:23.259Z,4.40
2018-11-27T17:50:21.882Z,4.40
2018-11-27T17:55:20.553Z,4.40
2018-11-27T18:00:22.373Z,4.40
2018-11-27T18:05:21.084Z,4.50
2018-11-27T18:10:19.755Z,4.40
2018-11-27T18:15:19.605Z,4.50
2018-11-27T18:20:18.349Z,4.50
2018-11-27T18:25:18.250Z,4.60
2018-11-27T18:30:18.991Z,4.50
2018-11-27T18:35:18.727Z,4.50
2018-11-27T18:40:19.673Z,4.50
2018-11-27T18:45:21.613Z,4.40
2018-11-27T18:50:21.094Z,4.40
2018-11-27T18:55:19.702Z,4.40
2018-11-27T19:00:25.395Z,4.40
2018-11-27T19:05:24.047Z,4.50
2018-11-27T19:10:27.037Z,4.50
2018-11-27T19:15:33.948Z,4.60
2018-11-27T19:20:32.596Z,4.50
2018-11-27T19:25:31.277Z,4.40
2018-11-27T19:30:32.371Z,4.40
2018-11-27T19:35:28.603Z,4.40
2018-11-27T19:40:27.325Z,4.40
2018-11-27T19:45:26.844Z,4.30
2018-11-27T19:50:25.484Z,4.40
2018-11-27T19:55:24.187Z,4.50
2018-11-27T20:00:26.321Z,4.50
2018-11-27T20:05:27.001Z,4.50
2018-11-27T20:10:25.685Z,4.50
2018-11-27T20:15:26.219Z,4.40
2018-11-27T20:20:27.014Z,4.40
2018-11-27T20:25:25.799Z,4.50
2018-11-27T20:30:26.023Z,4.50
2018-11-27T20:35:24.843Z,4.50
2018-11-27T20:40:23.680Z,4.50
2018-11-27T20:45:23.563Z,4.40
2018-11-27T20:50:22.982Z,4.40
2018-11-27T20:55:22.029Z,4.30
2018-11-27T21:00:23.030Z,4.30
2018-11-27T21:05:21.658Z,4.40
2018-11-27T21:10:20.334Z,4.30
2018-11-27T21:15:19.474Z,4.30
2018-11-27T21:20:19.590Z,4.40
2018-11-27T21:25:21.172Z,4.30
2018-11-27T21:30:19.842Z,4.30
2018-11-27T21:35:18.565Z,4.40
2018-11-27T21:40:17.778Z,4.40
2018-11-27T21:45:20.719Z,4.30
2018-11-27T21:50:20.386Z,4.40
2018-11-27T21:55:19.089Z,4.40
2018-11-27T22:00:21.191Z,4.30
2018-11-27T22:05:21.428Z,4.30
2018-11-27T22:10:22.282Z,4.30
2018-11-27T22:15:22.579Z,4.30
2018-11-27T22:20:21.747Z,4.30
2018-11-27T22:25:20.781Z,4.30
2018-11-27T22:30:20.741Z,4.30
2018-11-27T22:35:20.619Z,4.20
2018-11-27T22:40:21.397Z,4.30
2018-11-27T22:45:34.075Z,4.30
2018-11-27T22:50:33.617Z,4.30
2018-11-27T22:55:32.489Z,4.30
2018-11-27T23:00:36.662Z,4.30
2018-11-27T23:05:35.298Z,4.40
2018-11-27T23:10:35.469Z,4.40
2018-11-27T23:15:34.073Z,4.40
2018-11-27T23:20:32.686Z,4.30
2018-11-27T23:25:31.304Z,4.30
2018-11-27T23:30:29.933Z,4.30
2018-11-27T23:35:28.557Z,4.40
2018-11-27T23:40:27.159Z,4.40
2018-11-27T23:45:25.766Z,4.40
2018-11-27T23:50:24.366Z,4.40
2018-11-27T23:55:23.000Z,4.40
